Time;durP1;ratioP1;P1;durP2;ratioP2;P2;SDS_P1;SDS_P2;PMS_P1;PMS_P2;Temp;Humidity;BMP_temperature;BMP_pressure;BME280_temperature;BME280_humidity;BME280_pressure;Samples;Min_cycle;Max_cycle;Signal;HPM_P1;HPM_P2
2023/10/06 00:01:37;;;;;;;16.90;13.20;;;;;;;;;;5051859;28;20705;-55
2023/10/06 00:04:06;;;;;;;17.17;12.63;;;;;;;;;;5052514;28;20610;-54
2023/10/06 00:06:33;;;;;;;20.83;13.90;;;;;;;;;;5052878;28;20204;-54
2023/10/06 00:08:59;;;;;;;15.80;13.60;;;;;;;;;;5052575;28;20223;-56
2023/10/06 00:11:29;;;;;;;18.73;13.87;;;;;;;;;;5052432;28;20673;-55
2023/10/06 00:14:01;;;;;;;20.17;13.80;;;;;;;;;;5052382;28;20658;-55
2023/10/06 00:16:38;;;;;;;17.27;13.33;;;;;;;;;;5052036;28;20196;-56
2023/10/06 00:19:19;;;;;;;14.87;12.60;;;;;;;;;;5052671;28;20200;-56
2023/10/06 00:22:00;;;;;;;17.20;12.23;;;;;;;;;;5052248;28;20207;-56
2023/10/06 00:24:26;;;;;;;20.00;11.63;;;;;;;;;;5052266;28;20195;-53
2023/10/06 00:26:52;;;;;;;16.13;11.97;;;;;;;;;;5052232;28;20235;-56
2023/10/06 00:29:22;;;;;;;14.77;11.57;;;;;;;;;;5052074;28;20256;-56
2023/10/06 00:31:49;;;;;;;13.37;11.93;;;;;;;;;;5052153;28;20212;-56
2023/10/06 00:34:22;;;;;;;14.10;12.23;;;;;;;;;;5052232;28;20222;-55
2023/10/06 00:36:51;;;;;;;15.83;12.33;;;;;;;;;;5052336;28;20729;-55
2023/10/06 00:39:22;;;;;;;19.47;13.10;;;;;;;;;;5051958;28;20258;-54
2023/10/06 00:41:48;;;;;;;14.33;11.67;;;;;;;;;;5051666;28;20620;-54
2023/10/06 00:44:15;;;;;;;16.23;11.93;;;;;;;;;;5052053;28;20200;-55
2023/10/06 00:46:43;;;;;;;13.80;11.10;;;;;;;;;;5051778;28;20200;-55
2023/10/06 00:49:13;;;;;;;14.20;12.10;;;;;;;;;;5051850;28;20227;-54
2023/10/06 00:51:41;;;;;;;14.90;12.10;;;;;;;;;;5051595;28;20204;-53
2023/10/06 00:54:07;;;;;;;14.20;11.63;;;;;;;;;;5051774;28;20204;-54
2023/10/06 00:56:33;;;;;;;18.60;12.87;;;;;;;;;;5051663;28;20291;-54
2023/10/06 00:59:05;;;;;;;14.20;12.00;;;;;;;;;;5051815;28;20204;-54
2023/10/06 01:01:34;;;;;;;16.93;13.40;;;;;;;;;;5051682;28;20705;-54
2023/10/06 01:04:00;;;;;;;15.50;11.90;;;;;;;;;;5051674;28;20569;-54
2023/10/06 01:06:34;;;;;;;13.30;11.27;;;;;;;;;;5051261;28;20288;-54
2023/10/06 01:11:41;;;;;;;17.17;13.30;;;;;;;;;;5051691;28;20203;-58
2023/10/06 01:14:07;;;;;;;17.10;13.07;;;;;;;;;;5050679;28;20223;-54
2023/10/06 01:16:36;;;;;;;16.43;13.50;;;;;;;;;;5047953;28;20208;-54
2023/10/06 01:19:14;;;;;;;16.27;12.33;;;;;;;;;;5051671;28;20193;-54
2023/10/06 01:21:43;;;;;;;17.97;12.53;;;;;;;;;;5051800;28;20215;-54
2023/10/06 01:24:13;;;;;;;15.57;13.30;;;;;;;;;;5051607;28;20193;-54
2023/10/06 01:26:42;;;;;;;13.70;12.00;;;;;;;;;;5051338;28;20204;-54
2023/10/06 01:29:13;;;;;;;20.90;13.00;;;;;;;;;;5051404;28;20224;-54
2023/10/06 01:31:41;;;;;;;13.37;11.40;;;;;;;;;;5051465;28;20237;-55
2023/10/06 01:34:10;;;;;;;14.70;10.90;;;;;;;;;;5051579;28;20226;-54
2023/10/06 01:36:36;;;;;;;14.03;11.83;;;;;;;;;;5049618;28;20220;-55
2023/10/06 01:39:04;;;;;;;18.50;11.73;;;;;;;;;;5051543;28;20238;-54
2023/10/06 01:41:34;;;;;;;14.47;10.93;;;;;;;;;;5051546;28;20208;-55
2023/10/06 01:44:00;;;;;;;16.67;10.20;;;;;;;;;;5051712;28;20208;-55
2023/10/06 01:46:26;;;;;;;11.47;9.83;;;;;;;;;;5051447;28;20610;-55
2023/10/06 01:48:52;;;;;;;12.20;9.70;;;;;;;;;;5051331;28;20726;-55
2023/10/06 01:51:19;;;;;;;12.80;10.60;;;;;;;;;;5051673;28;20195;-55
2023/10/06 01:53:45;;;;;;;16.23;10.83;;;;;;;;;;5051433;28;20200;-55
2023/10/06 01:56:13;;;;;;;17.27;10.97;;;;;;;;;;5051361;28;20208;-55
2023/10/06 01:58:41;;;;;;;14.60;10.40;;;;;;;;;;5051346;28;20204;-54
2023/10/06 02:01:07;;;;;;;10.40;9.30;;;;;;;;;;5051465;28;20196;-55
2023/10/06 02:03:38;;;;;;;16.60;10.77;;;;;;;;;;5051540;28;20849;-55
2023/10/06 02:06:04;;;;;;;13.30;9.23;;;;;;;;;;5051514;28;20204;-54
2023/10/06 02:08:31;;;;;;;10.70;9.33;;;;;;;;;;5051262;28;20228;-55
2023/10/06 02:11:01;;;;;;;12.20;9.07;;;;;;;;;;5051302;28;20254;-55
2023/10/06 02:13:29;;;;;;;15.23;9.43;;;;;;;;;;5051323;28;20204;-55
2023/10/06 02:16:01;;;;;;;14.00;9.70;;;;;;;;;;5051235;28;20261;-55
2023/10/06 02:18:35;;;;;;;14.70;9.63;;;;;;;;;;5051254;28;20201;-54
2023/10/06 02:21:04;;;;;;;12.83;9.33;;;;;;;;;;5051395;28;20207;-55
2023/10/06 02:23:30;;;;;;;13.37;9.57;;;;;;;;;;5051259;28;20272;-55
2023/10/06 02:25:56;;;;;;;11.67;9.13;;;;;;;;;;5053716;28;21004;-55
2023/10/06 02:28:22;;;;;;;12.17;9.60;;;;;;;;;;5054913;28;20203;-55
2023/10/06 02:30:51;;;;;;;15.27;10.73;;;;;;;;;;5054905;28;20192;-55
2023/10/06 02:33:19;;;;;;;16.40;10.03;;;;;;;;;;5053625;28;20232;-55
2023/10/06 02:35:46;;;;;;;13.37;10.20;;;;;;;;;;5054347;28;20220;-55
2023/10/06 02:38:12;;;;;;;15.10;11.73;;;;;;;;;;5054740;28;20196;-55
2023/10/06 02:40:45;;;;;;;16.13;10.87;;;;;;;;;;5054349;28;20271;-55
2023/10/06 02:43:13;;;;;;;14.97;10.70;;;;;;;;;;5054665;28;20874;-55
2023/10/06 02:45:40;;;;;;;14.43;10.60;;;;;;;;;;5054440;28;20204;-55
2023/10/06 02:48:15;;;;;;;14.00;9.77;;;;;;;;;;5054563;28;20280;-55
2023/10/06 02:50:45;;;;;;;15.07;10.57;;;;;;;;;;5054407;28;20203;-56
2023/10/06 02:53:15;;;;;;;15.03;11.20;;;;;;;;;;5054532;28;20204;-55
2023/10/06 02:55:44;;;;;;;14.87;10.63;;;;;;;;;;5054287;28;20204;-55
2023/10/06 02:58:15;;;;;;;24.00;12.20;;;;;;;;;;5054394;28;20279;-55
2023/10/06 03:00:50;;;;;;;20.27;11.63;;;;;;;;;;5054295;28;20203;-55
2023/10/06 03:03:18;;;;;;;23.30;11.93;;;;;;;;;;5054365;28;20199;-55
2023/10/06 03:05:49;;;;;;;14.23;10.70;;;;;;;;;;5054126;28;20185;-55
2023/10/06 03:08:20;;;;;;;16.10;11.07;;;;;;;;;;5054178;28;20201;-55
2023/10/06 03:10:48;;;;;;;16.93;11.43;;;;;;;;;;5054089;28;20208;-55
2023/10/06 03:13:16;;;;;;;21.73;12.90;;;;;;;;;;5054222;28;20267;-55
2023/10/06 03:15:46;;;;;;;18.37;12.70;;;;;;;;;;5053897;28;20280;-56
2023/10/06 03:18:12;;;;;;;18.20;12.03;;;;;;;;;;5053958;28;20720;-55
2023/10/06 03:20:48;;;;;;;22.00;12.73;;;;;;;;;;5053807;28;20246;-55
2023/10/06 03:26:03;;;;;;;16.47;12.43;;;;;;;;;;5053807;28;20215;-54
2023/10/06 03:28:36;;;;;;;18.43;12.33;;;;;;;;;;5053624;28;20223;-56
2023/10/06 03:31:05;;;;;;;19.53;12.00;;;;;;;;;;5053849;28;20200;-55
2023/10/06 03:33:32;;;;;;;14.87;10.87;;;;;;;;;;5053642;28;20629;-56
2023/10/06 03:35:58;;;;;;;14.33;10.07;;;;;;;;;;5052764;28;20223;-55
2023/10/06 03:38:27;;;;;;;19.93;10.87;;;;;;;;;;5053292;28;20196;-55
2023/10/06 03:46:10;;;;;;;14.67;9.33;;;;;;;;;;5053494;28;20621;-55
2023/10/06 03:48:38;;;;;;;14.00;9.27;;;;;;;;;;5053239;28;20274;-56
2023/10/06 03:51:05;;;;;;;13.53;8.57;;;;;;;;;;5053494;28;20200;-56
2023/10/06 03:53:33;;;;;;;13.83;8.07;;;;;;;;;;5053300;28;20200;-55
2023/10/06 03:55:59;;;;;;;12.67;7.80;;;;;;;;;;5053152;28;20619;-55
2023/10/06 03:58:28;;;;;;;10.60;7.23;;;;;;;;;;5053132;28;20327;-56
2023/10/06 04:00:54;;;;;;;14.30;8.33;;;;;;;;;;5052981;28;20666;-55
2023/10/06 04:03:21;;;;;;;12.27;7.37;;;;;;;;;;5053197;28;20198;-55
2023/10/06 04:05:50;;;;;;;12.30;7.83;;;;;;;;;;5052952;28;20204;-55
2023/10/06 04:08:18;;;;;;;10.73;7.63;;;;;;;;;;5053081;28;20203;-55
2023/10/06 04:10:48;;;;;;;13.07;7.53;;;;;;;;;;5052767;28;20276;-55
2023/10/06 04:13:18;;;;;;;10.57;7.20;;;;;;;;;;5052921;28;20199;-55
2023/10/06 04:15:52;;;;;;;15.73;7.27;;;;;;;;;;5049287;28;20196;-55
2023/10/06 04:18:19;;;;;;;12.10;7.37;;;;;;;;;;5052885;28;20671;-55
2023/10/06 04:20:45;;;;;;;13.63;7.37;;;;;;;;;;5052669;28;20261;-55
2023/10/06 04:23:12;;;;;;;11.93;7.67;;;;;;;;;;5052751;28;20192;-55
2023/10/06 04:25:38;;;;;;;10.87;7.07;;;;;;;;;;5052547;28;20193;-55
2023/10/06 04:28:11;;;;;;;9.73;6.97;;;;;;;;;;5052669;28;20290;-55
2023/10/06 04:30:37;;;;;;;11.57;6.93;;;;;;;;;;5052451;28;20307;-56
2023/10/06 04:33:09;;;;;;;14.07;7.37;;;;;;;;;;5052744;28;20254;-55
2023/10/06 04:35:36;;;;;;;13.67;7.27;;;;;;;;;;5050664;28;20708;-55
2023/10/06 04:38:03;;;;;;;11.53;7.13;;;;;;;;;;5052488;28;20188;-55
2023/10/06 04:40:29;;;;;;;11.93;7.23;;;;;;;;;;5052139;28;20240;-55
2023/10/06 04:42:56;;;;;;;13.70;7.50;;;;;;;;;;5050568;28;20200;-55
2023/10/06 04:45:24;;;;;;;11.70;7.07;;;;;;;;;;5052222;28;20200;-55
2023/10/06 04:47:50;;;;;;;10.30;6.73;;;;;;;;;;5050285;28;20295;-55
2023/10/06 04:50:16;;;;;;;15.43;8.03;;;;;;;;;;5052097;28;20708;-55
2023/10/06 04:52:44;;;;;;;11.83;7.00;;;;;;;;;;5052048;28;20671;-55
2023/10/06 04:55:11;;;;;;;10.27;7.17;;;;;;;;;;5052145;28;20196;-55
2023/10/06 04:57:38;;;;;;;11.73;7.53;;;;;;;;;;5046885;28;20258;-55
2023/10/06 05:00:13;;;;;;;7.40;6.40;;;;;;;;;;5050555;28;20200;-55
2023/10/06 05:02:44;;;;;;;9.60;6.53;;;;;;;;;;5050266;28;20279;-55
2023/10/06 05:05:10;;;;;;;12.13;7.03;;;;;;;;;;5050412;28;20212;-56
2023/10/06 05:07:37;;;;;;;9.47;6.13;;;;;;;;;;5050183;28;20200;-56
2023/10/06 05:10:04;;;;;;;13.40;7.03;;;;;;;;;;5051981;28;20224;-56
2023/10/06 05:12:32;;;;;;;11.20;6.50;;;;;;;;;;5051961;28;20204;-55
2023/10/06 05:14:58;;;;;;;14.87;7.63;;;;;;;;;;5051861;28;20204;-55
2023/10/06 05:17:24;;;;;;;12.70;7.53;;;;;;;;;;5051483;28;20196;-55
2023/10/06 05:19:51;;;;;;;10.97;7.17;;;;;;;;;;5051634;28;20697;-55
2023/10/06 05:22:18;;;;;;;13.63;6.60;;;;;;;;;;5051642;28;20202;-55
2023/10/06 05:24:44;;;;;;;11.27;6.80;;;;;;;;;;5051511;28;20203;-54
2023/10/06 05:27:10;;;;;;;12.87;6.23;;;;;;;;;;5051640;28;20273;-55
2023/10/06 05:29:36;;;;;;;14.17;7.03;;;;;;;;;;5051553;28;20224;-54
2023/10/06 05:32:02;;;;;;;11.77;6.40;;;;;;;;;;5051429;28;20196;-55
2023/10/06 05:34:29;;;;;;;11.43;6.20;;;;;;;;;;5051470;28;20192;-55
2023/10/06 05:36:59;;;;;;;14.43;6.10;;;;;;;;;;5051299;28;20597;-55
2023/10/06 05:39:28;;;;;;;8.83;5.77;;;;;;;;;;5050885;28;20232;-54
2023/10/06 05:41:54;;;;;;;10.53;6.63;;;;;;;;;;5051109;28;20227;-54
2023/10/06 05:44:21;;;;;;;13.60;6.13;;;;;;;;;;5051397;28;20204;-54
2023/10/06 05:46:47;;;;;;;8.63;6.33;;;;;;;;;;5051399;28;20278;-55
2023/10/06 05:49:13;;;;;;;9.40;6.53;;;;;;;;;;5051386;28;20311;-55
2023/10/06 05:51:39;;;;;;;12.83;6.60;;;;;;;;;;5051292;28;20693;-55
2023/10/06 05:54:09;;;;;;;9.33;5.70;;;;;;;;;;5051348;28;20188;-55
2023/10/06 05:56:37;;;;;;;13.00;6.53;;;;;;;;;;5051384;28;20217;-55
2023/10/06 05:59:05;;;;;;;9.57;6.10;;;;;;;;;;5051732;28;20200;-55
2023/10/06 06:01:34;;;;;;;12.73;6.33;;;;;;;;;;5055225;28;20204;-55
2023/10/06 06:04:08;;;;;;;9.50;5.60;;;;;;;;;;5053674;28;20200;-54
2023/10/06 06:06:36;;;;;;;12.53;6.07;;;;;;;;;;5050124;28;20208;-54
2023/10/06 06:09:04;;;;;;;10.97;6.17;;;;;;;;;;5055305;28;20314;-54
2023/10/06 06:11:31;;;;;;;6.40;5.37;;;;;;;;;;5055081;28;20691;-54
2023/10/06 06:13:58;;;;;;;12.80;5.73;;;;;;;;;;5051579;28;20303;-55
2023/10/06 06:16:24;;;;;;;14.87;6.37;;;;;;;;;;5053431;28;20200;-54
2023/10/06 06:18:50;;;;;;;9.27;6.37;;;;;;;;;;5055061;28;20202;-55
2023/10/06 06:21:16;;;;;;;9.03;5.70;;;;;;;;;;5055134;28;20204;-54
2023/10/06 06:23:46;;;;;;;12.60;6.23;;;;;;;;;;5049817;28;20196;-54
2023/10/06 06:26:12;;;;;;;10.80;6.27;;;;;;;;;;5053079;28;21023;-54
2023/10/06 06:28:43;;;;;;;8.80;6.13;;;;;;;;;;5053038;28;20253;-55
2023/10/06 06:31:16;;;;;;;7.40;5.73;;;;;;;;;;5047992;28;20214;-55
2023/10/06 06:33:42;;;;;;;11.63;5.83;;;;;;;;;;5054745;28;20679;-55
2023/10/06 06:36:08;;;;;;;9.33;5.97;;;;;;;;;;5051129;28;20231;-55
2023/10/06 06:38:39;;;;;;;9.43;5.53;;;;;;;;;;5054584;28;20242;-55
2023/10/06 06:41:05;;;;;;;8.50;5.80;;;;;;;;;;5054803;28;20204;-54
2023/10/06 06:43:31;;;;;;;11.33;5.57;;;;;;;;;;5054671;28;20204;-54
2023/10/06 06:45:58;;;;;;;7.37;5.33;;;;;;;;;;5054414;28;20283;-54
2023/10/06 06:48:26;;;;;;;10.27;5.50;;;;;;;;;;5050974;28;20200;-55
2023/10/06 06:50:52;;;;;;;11.40;5.50;;;;;;;;;;5052600;28;20208;-54
2023/10/06 06:53:18;;;;;;;12.03;5.40;;;;;;;;;;5054463;28;20196;-54
2023/10/06 06:55:44;;;;;;;12.03;5.07;;;;;;;;;;5053914;28;20538;-55
2023/10/06 06:58:10;;;;;;;8.33;5.17;;;;;;;;;;5054210;28;20192;-54
2023/10/06 07:00:39;;;;;;;10.23;5.07;;;;;;;;;;5054091;28;20200;-55
2023/10/06 07:03:06;;;;;;;7.20;4.90;;;;;;;;;;5054028;28;20200;-55
2023/10/06 07:05:36;;;;;;;9.73;4.70;;;;;;;;;;5052422;28;20210;-53
2023/10/06 07:08:05;;;;;;;9.67;4.90;;;;;;;;;;5047631;28;20207;-53
2023/10/06 07:10:31;;;;;;;8.40;5.53;;;;;;;;;;5052195;28;20235;-54
2023/10/06 07:13:00;;;;;;;10.03;4.93;;;;;;;;;;5052243;28;20786;-54
2023/10/06 07:15:30;;;;;;;7.40;4.27;;;;;;;;;;5048670;28;20227;-56
2023/10/06 07:17:56;;;;;;;6.93;5.03;;;;;;;;;;5051967;28;20450;-54
2023/10/06 07:20:26;;;;;;;7.57;4.60;;;;;;;;;;5053558;28;20196;-56
2023/10/06 07:22:53;;;;;;;7.03;4.70;;;;;;;;;;5053373;28;20522;-55
2023/10/06 07:25:19;;;;;;;8.93;4.73;;;;;;;;;;5052000;28;20295;-54
2023/10/06 07:27:46;;;;;;;7.40;4.13;;;;;;;;;;5051643;28;20578;-56
2023/10/06 07:30:14;;;;;;;8.27;4.67;;;;;;;;;;5051724;28;20297;-56
2023/10/06 07:32:41;;;;;;;8.90;4.60;;;;;;;;;;5049847;28;20204;-55
2023/10/06 07:35:08;;;;;;;9.43;4.70;;;;;;;;;;5051617;28;20369;-56
2023/10/06 07:37:36;;;;;;;7.60;4.17;;;;;;;;;;5053424;28;20205;-55
2023/10/06 07:40:03;;;;;;;7.93;4.10;;;;;;;;;;5053091;28;20243;-56
2023/10/06 07:42:29;;;;;;;8.00;4.17;;;;;;;;;;5049842;28;20204;-56
2023/10/06 07:44:57;;;;;;;9.90;4.43;;;;;;;;;;5052912;28;20200;-57
2023/10/06 07:47:24;;;;;;;7.70;3.90;;;;;;;;;;5053048;28;20204;-56
2023/10/06 07:49:50;;;;;;;4.20;3.63;;;;;;;;;;5053285;28;20613;-54
2023/10/06 07:52:21;;;;;;;6.67;3.60;;;;;;;;;;5049732;28;20197;-54
2023/10/06 07:54:49;;;;;;;8.30;3.80;;;;;;;;;;5051440;28;20231;-56
2023/10/06 07:57:15;;;;;;;8.07;3.40;;;;;;;;;;5053018;28;20200;-56
2023/10/06 07:59:42;;;;;;;9.47;4.70;;;;;;;;;;5051417;28;20254;-56
2023/10/06 08:02:08;;;;;;;6.87;3.70;;;;;;;;;;5052901;28;20254;-52
2023/10/06 08:04:34;;;;;;;7.07;4.10;;;;;;;;;;5052826;28;20735;-55
2023/10/06 08:07:00;;;;;;;6.07;3.77;;;;;;;;;;5051288;28;20203;-53
2023/10/06 08:09:27;;;;;;;7.53;3.50;;;;;;;;;;5049165;28;20762;-55
2023/10/06 08:11:54;;;;;;;9.17;4.23;;;;;;;;;;5050378;28;20204;-53
2023/10/06 08:14:20;;;;;;;7.70;3.63;;;;;;;;;;5052861;28;20224;-54
2023/10/06 08:16:46;;;;;;;6.73;3.50;;;;;;;;;;5050342;28;20253;-54
2023/10/06 08:19:12;;;;;;;10.67;4.03;;;;;;;;;;5050757;28;20287;-56
2023/10/06 08:21:39;;;;;;;10.03;3.97;;;;;;;;;;5052340;28;20253;-53
2023/10/06 08:24:06;;;;;;;6.60;3.33;;;;;;;;;;5051974;28;20258;-53
2023/10/06 08:26:32;;;;;;;7.93;3.57;;;;;;;;;;5052430;28;20205;-55
2023/10/06 08:28:59;;;;;;;7.27;3.50;;;;;;;;;;5052057;28;20215;-54
2023/10/06 08:31:26;;;;;;;7.07;3.17;;;;;;;;;;5052257;28;20207;-54
2023/10/06 08:33:52;;;;;;;8.20;3.50;;;;;;;;;;5052446;28;20224;-54
2023/10/06 08:36:18;;;;;;;7.80;3.47;;;;;;;;;;5052462;28;20605;-55
2023/10/06 08:38:46;;;;;;;6.87;3.20;;;;;;;;;;5051910;28;20193;-55
2023/10/06 08:41:15;;;;;;;6.77;3.43;;;;;;;;;;5052022;28;20800;-54
2023/10/06 08:43:44;;;;;;;9.87;3.50;;;;;;;;;;5051795;28;20219;-54
2023/10/06 08:46:13;;;;;;;5.87;3.10;;;;;;;;;;5052317;28;20346;-55
2023/10/06 08:48:40;;;;;;;7.37;3.40;;;;;;;;;;5051773;28;20223;-56
2023/10/06 08:51:07;;;;;;;9.50;3.33;;;;;;;;;;5051882;28;20207;-55
2023/10/06 08:53:37;;;;;;;6.37;3.40;;;;;;;;;;5052061;28;20278;-54
2023/10/06 08:56:03;;;;;;;6.73;3.00;;;;;;;;;;5051870;28;20231;-54
2023/10/06 08:58:29;;;;;;;4.70;3.37;;;;;;;;;;5050223;28;20196;-54
2023/10/06 09:00:55;;;;;;;4.87;2.97;;;;;;;;;;5051799;28;20734;-55
2023/10/06 09:03:23;;;;;;;6.67;3.33;;;;;;;;;;5051716;28;20591;-54
2023/10/06 09:05:50;;;;;;;4.70;3.03;;;;;;;;;;5050081;28;20200;-54
2023/10/06 09:08:17;;;;;;;6.93;3.03;;;;;;;;;;5051832;28;20204;-54
2023/10/06 09:10:50;;;;;;;5.90;2.60;;;;;;;;;;5051508;28;20215;-54
2023/10/06 09:13:17;;;;;;;5.97;2.80;;;;;;;;;;5051767;28;20655;-54
2023/10/06 09:15:44;;;;;;;5.97;2.93;;;;;;;;;;5051483;28;20675;-54
2023/10/06 09:18:20;;;;;;;19.13;3.10;;;;;;;;;;5049840;28;20211;-54
2023/10/06 09:20:47;;;;;;;6.13;2.80;;;;;;;;;;5051591;28;20199;-54
2023/10/06 09:23:29;;;;;;;6.57;2.97;;;;;;;;;;5051803;28;20246;-54
2023/10/06 09:25:55;;;;;;;5.53;2.77;;;;;;;;;;5049793;28;20809;-54
2023/10/06 09:28:21;;;;;;;13.87;3.33;;;;;;;;;;5051291;28;20207;-54
2023/10/06 09:30:50;;;;;;;6.40;2.87;;;;;;;;;;5051193;28;20228;-55
2023/10/06 09:33:16;;;;;;;8.53;2.80;;;;;;;;;;5051517;28;20210;-55
2023/10/06 09:35:43;;;;;;;8.87;3.00;;;;;;;;;;5053535;28;20224;-55
2023/10/06 09:38:13;;;;;;;5.20;2.90;;;;;;;;;;5055371;28;20722;-54
2023/10/06 09:40:43;;;;;;;5.50;2.20;;;;;;;;;;5055115;28;20231;-54
2023/10/06 09:43:11;;;;;;;5.47;2.57;;;;;;;;;;5055372;28;20204;-55
2023/10/06 09:45:37;;;;;;;5.00;2.77;;;;;;;;;;5055337;28;20196;-55
2023/10/06 09:48:08;;;;;;;9.27;3.13;;;;;;;;;;5055271;28;20650;-55
2023/10/06 09:50:37;;;;;;;5.00;2.80;;;;;;;;;;5055245;28;20765;-55
2023/10/06 09:53:08;;;;;;;4.57;2.40;;;;;;;;;;5055153;28;20713;-55
2023/10/06 09:55:35;;;;;;;7.10;2.40;;;;;;;;;;5055296;28;20196;-55
2023/10/06 09:58:05;;;;;;;7.80;2.97;;;;;;;;;;5055037;28;20207;-55
2023/10/06 10:00:35;;;;;;;5.60;2.50;;;;;;;;;;5053479;28;20239;-54
2023/10/06 10:03:01;;;;;;;5.83;2.60;;;;;;;;;;5055234;28;20813;-54
2023/10/06 10:05:29;;;;;;;7.13;2.70;;;;;;;;;;5055343;28;20299;-53
2023/10/06 10:07:55;;;;;;;5.77;2.70;;;;;;;;;;5054932;28;20246;-53
2023/10/06 10:10:27;;;;;;;5.47;2.60;;;;;;;;;;5054847;28;20709;-53
2023/10/06 10:13:07;;;;;;;6.53;2.80;;;;;;;;;;5054875;28;20337;-53
2023/10/06 10:15:41;;;;;;;4.87;2.40;;;;;;;;;;5055061;28;20232;-53
2023/10/06 10:18:13;;;;;;;5.87;2.80;;;;;;;;;;5054643;28;20643;-54
2023/10/06 10:20:40;;;;;;;5.40;2.70;;;;;;;;;;5054777;28;20246;-53
2023/10/06 10:23:06;;;;;;;4.77;2.80;;;;;;;;;;5054782;28;20231;-53
2023/10/06 10:25:36;;;;;;;4.17;2.47;;;;;;;;;;5052976;28;20289;-53
2023/10/06 10:28:17;;;;;;;5.73;2.80;;;;;;;;;;5054741;28;20660;-55
2023/10/06 10:30:56;;;;;;;5.40;2.63;;;;;;;;;;5054600;28;20229;-52
2023/10/06 10:33:22;;;;;;;5.33;2.83;;;;;;;;;;5052855;28;20222;-54
2023/10/06 10:36:07;;;;;;;4.40;2.70;;;;;;;;;;5054468;28;20225;-54
2023/10/06 10:38:34;;;;;;;5.60;2.67;;;;;;;;;;5054650;28;20188;-56
2023/10/06 10:41:01;;;;;;;4.07;2.37;;;;;;;;;;5054630;28;20192;-55
2023/10/06 10:43:28;;;;;;;5.60;2.47;;;;;;;;;;5051198;28;20202;-54
2023/10/06 10:45:57;;;;;;;6.73;3.20;;;;;;;;;;5052163;28;20258;-55
2023/10/06 10:48:31;;;;;;;7.07;3.00;;;;;;;;;;5052582;28;20191;-56
2023/10/06 10:51:01;;;;;;;6.43;3.00;;;;;;;;;;5049128;28;20345;-54
2023/10/06 10:53:35;;;;;;;5.93;2.93;;;;;;;;;;5050347;28;20202;-55
2023/10/06 10:56:01;;;;;;;7.23;3.30;;;;;;;;;;5053927;28;20247;-54
2023/10/06 10:58:48;;;;;;;6.47;2.80;;;;;;;;;;5053850;28;20625;-55
2023/10/06 11:01:38;;;;;;;6.10;3.00;;;;;;;;;;5053905;28;20584;-53
2023/10/06 11:04:24;;;;;;;4.10;2.60;;;;;;;;;;5043448;28;20206;-55
2023/10/06 11:06:51;;;;;;;5.37;2.60;;;;;;;;;;5053783;28;20200;-54
2023/10/06 11:09:36;;;;;;;6.10;2.90;;;;;;;;;;5053936;28;20230;-54
2023/10/06 11:12:05;;;;;;;6.07;3.00;;;;;;;;;;5054145;28;20189;-54
2023/10/06 11:14:31;;;;;;;8.93;2.87;;;;;;;;;;5054215;28;20256;-56
2023/10/06 11:17:16;;;;;;;5.80;2.97;;;;;;;;;;5053879;28;20289;-53
2023/10/06 11:19:44;;;;;;;7.03;3.03;;;;;;;;;;5053915;28;20228;-55
2023/10/06 11:22:10;;;;;;;7.63;3.50;;;;;;;;;;5053905;28;20204;-54
2023/10/06 11:24:37;;;;;;;5.40;2.57;;;;;;;;;;5053829;28;20246;-54
2023/10/06 11:27:11;;;;;;;7.77;2.93;;;;;;;;;;5053824;28;20214;-55
2023/10/06 11:29:37;;;;;;;5.33;2.93;;;;;;;;;;5053507;28;20234;-54
2023/10/06 11:32:05;;;;;;;6.10;3.33;;;;;;;;;;5053575;28;20667;-54
2023/10/06 11:34:32;;;;;;;5.20;2.63;;;;;;;;;;5053702;28;20288;-54
2023/10/06 11:36:59;;;;;;;5.50;3.23;;;;;;;;;;5053384;28;20271;-56
2023/10/06 11:39:29;;;;;;;5.93;2.93;;;;;;;;;;5053310;28;20726;-55
2023/10/06 11:42:10;;;;;;;9.70;2.67;;;;;;;;;;5053123;28;20256;-55
2023/10/06 11:44:39;;;;;;;7.87;2.80;;;;;;;;;;5053229;28;20258;-56
2023/10/06 11:47:05;;;;;;;5.20;2.70;;;;;;;;;;5053452;28;20259;-53
2023/10/06 11:49:31;;;;;;;5.93;2.93;;;;;;;;;;5053281;28;20225;-55
2023/10/06 11:51:57;;;;;;;7.30;2.97;;;;;;;;;;5053284;28;20204;-54
2023/10/06 11:54:25;;;;;;;6.93;3.17;;;;;;;;;;5053248;28;20213;-54
2023/10/06 11:56:53;;;;;;;4.93;2.80;;;;;;;;;;5053004;28;20205;-54
2023/10/06 11:59:20;;;;;;;8.20;2.77;;;;;;;;;;5052813;28;20666;-54
2023/10/06 12:01:48;;;;;;;5.47;2.47;;;;;;;;;;5053167;28;20221;-54
2023/10/06 12:04:26;;;;;;;4.43;2.60;;;;;;;;;;5053174;28;20208;-54
2023/10/06 12:06:52;;;;;;;7.70;3.27;;;;;;;;;;5052904;28;20635;-54
2023/10/06 12:09:33;;;;;;;6.03;2.77;;;;;;;;;;5052981;28;20232;-54
2023/10/06 12:11:59;;;;;;;8.87;3.07;;;;;;;;;;5052934;28;20280;-55
2023/10/06 12:14:26;;;;;;;5.10;2.60;;;;;;;;;;5052938;28;20225;-55
2023/10/06 12:16:54;;;;;;;6.47;2.60;;;;;;;;;;5052703;28;20196;-55
2023/10/06 12:19:20;;;;;;;7.33;3.03;;;;;;;;;;5052684;28;20705;-54
2023/10/06 12:21:47;;;;;;;6.87;2.83;;;;;;;;;;5052723;28;20219;-54
2023/10/06 12:24:13;;;;;;;5.83;2.97;;;;;;;;;;5052681;28;20198;-54
2023/10/06 12:26:40;;;;;;;5.87;2.97;;;;;;;;;;5052628;28;20202;-54
2023/10/06 12:29:06;;;;;;;6.07;2.87;;;;;;;;;;5052347;28;20259;-54
2023/10/06 12:31:32;;;;;;;6.87;2.77;;;;;;;;;;5052731;28;20204;-55
2023/10/06 12:34:03;;;;;;;5.60;2.73;;;;;;;;;;5052444;28;20613;-56
2023/10/06 12:36:29;;;;;;;5.47;2.60;;;;;;;;;;5052455;28;20225;-54
2023/10/06 12:38:55;;;;;;;8.03;3.03;;;;;;;;;;5052149;28;20290;-54
2023/10/06 12:41:22;;;;;;;6.13;2.80;;;;;;;;;;5052544;28;20206;-55
2023/10/06 12:43:49;;;;;;;6.43;3.00;;;;;;;;;;5052281;28;20673;-55
2023/10/06 12:46:17;;;;;;;4.53;2.70;;;;;;;;;;5052345;28;20195;-54
2023/10/06 12:48:46;;;;;;;4.87;3.03;;;;;;;;;;5052294;28;20637;-54
2023/10/06 12:51:13;;;;;;;6.13;2.70;;;;;;;;;;5051866;28;20306;-55
2023/10/06 12:53:39;;;;;;;7.20;2.83;;;;;;;;;;5051986;28;20198;-55
2023/10/06 12:56:05;;;;;;;5.40;2.87;;;;;;;;;;5052103;28;20187;-54
2023/10/06 12:58:31;;;;;;;6.83;3.10;;;;;;;;;;5052123;28;20281;-55
2023/10/06 13:00:59;;;;;;;5.33;2.60;;;;;;;;;;5052184;28;20195;-54
2023/10/06 13:03:25;;;;;;;5.27;2.53;;;;;;;;;;5052017;28;20638;-55
2023/10/06 13:05:51;;;;;;;7.00;3.10;;;;;;;;;;5051892;28;20674;-55
2023/10/06 13:08:20;;;;;;;6.37;3.27;;;;;;;;;;5051709;28;20644;-55
2023/10/06 13:10:47;;;;;;;5.13;2.90;;;;;;;;;;5051787;28;20236;-54
2023/10/06 13:13:13;;;;;;;3.97;2.70;;;;;;;;;;5051947;28;20196;-54
2023/10/06 13:15:42;;;;;;;6.73;3.10;;;;;;;;;;5051793;28;20239;-55
2023/10/06 13:18:09;;;;;;;5.33;2.70;;;;;;;;;;5051701;28;20205;-54
2023/10/06 13:20:35;;;;;;;7.20;2.60;;;;;;;;;;5051866;28;20304;-55
2023/10/06 13:23:04;;;;;;;7.00;2.97;;;;;;;;;;5051648;28;20261;-54
2023/10/06 13:25:31;;;;;;;7.30;2.80;;;;;;;;;;5051828;28;20250;-54
2023/10/06 13:27:57;;;;;;;7.33;3.37;;;;;;;;;;5051534;28;20739;-54
2023/10/06 13:30:24;;;;;;;7.63;2.60;;;;;;;;;;5051687;28;20233;-55
2023/10/06 13:32:52;;;;;;;7.00;2.90;;;;;;;;;;5051771;28;20222;-53
2023/10/06 13:35:19;;;;;;;7.13;2.70;;;;;;;;;;5051559;28;20813;-53
2023/10/06 13:37:46;;;;;;;6.23;2.53;;;;;;;;;;5051547;28;20196;-52
2023/10/06 13:40:12;;;;;;;5.50;3.27;;;;;;;;;;5051373;28;20325;-56
2023/10/06 13:42:41;;;;;;;5.97;2.97;;;;;;;;;;5051554;28;20203;-56
2023/10/06 13:45:14;;;;;;;7.33;2.60;;;;;;;;;;5051372;28;20567;-56
2023/10/06 13:47:42;;;;;;;5.50;2.57;;;;;;;;;;5051462;28;20559;-56
2023/10/06 13:50:09;;;;;;;5.73;3.13;;;;;;;;;;5051255;28;20646;-55
2023/10/06 13:52:37;;;;;;;7.83;2.73;;;;;;;;;;5051516;28;20199;-56
2023/10/06 13:55:04;;;;;;;4.70;2.60;;;;;;;;;;5051348;28;20208;-55
2023/10/06 13:57:30;;;;;;;7.20;2.93;;;;;;;;;;5051546;28;20223;-55
2023/10/06 13:59:56;;;;;;;10.13;2.67;;;;;;;;;;5051395;28;20246;-56
2023/10/06 14:02:24;;;;;;;4.73;2.77;;;;;;;;;;5051528;28;20195;-56
2023/10/06 14:04:50;;;;;;;6.83;2.60;;;;;;;;;;5051429;28;20204;-56
2023/10/06 14:07:17;;;;;;;7.30;3.00;;;;;;;;;;5051562;28;20241;-56
2023/10/06 14:09:44;;;;;;;7.43;3.37;;;;;;;;;;5051295;28;20313;-56
2023/10/06 14:12:13;;;;;;;6.33;3.00;;;;;;;;;;5051243;28;20577;-56
2023/10/06 14:17:13;;;;;;;5.97;2.83;;;;;;;;;;5051321;28;20559;-56
2023/10/06 14:19:39;;;;;;;4.00;2.73;;;;;;;;;;5051294;28;20258;-56
2023/10/06 14:22:05;;;;;;;5.53;2.70;;;;;;;;;;5054107;28;20199;-56
2023/10/06 14:24:34;;;;;;;9.07;3.33;;;;;;;;;;5055061;28;20187;-56
2023/10/06 14:27:04;;;;;;;5.83;2.77;;;;;;;;;;5054819;28;20258;-56
2023/10/06 14:29:30;;;;;;;6.73;3.30;;;;;;;;;;5054907;28;20224;-54
2023/10/06 14:32:11;;;;;;;5.57;2.70;;;;;;;;;;5054789;28;20826;-55
2023/10/06 14:34:56;;;;;;;5.70;2.67;;;;;;;;;;5054819;28;20613;-56
2023/10/06 14:37:38;;;;;;;6.80;2.97;;;;;;;;;;5054893;28;20204;-55
2023/10/06 14:48:27;;;;;;;4.90;2.53;;;;;;;;;;5054473;28;20198;-54
2023/10/06 14:50:56;;;;;;;4.50;2.77;;;;;;;;;;5054307;28;20239;-55
2023/10/06 14:53:25;;;;;;;6.27;3.10;;;;;;;;;;5054463;28;20225;-55
2023/10/06 14:55:51;;;;;;;8.03;2.80;;;;;;;;;;5054478;28;20251;-55
2023/10/06 14:58:19;;;;;;;7.97;3.00;;;;;;;;;;5054357;28;20211;-54
2023/10/06 15:00:46;;;;;;;5.23;3.07;;;;;;;;;;5054198;28;20673;-55
2023/10/06 15:03:18;;;;;;;6.10;3.60;;;;;;;;;;5054103;28;20201;-55
2023/10/06 15:05:45;;;;;;;6.30;3.00;;;;;;;;;;5054161;28;20203;-56